Halifax, Nova Scotia

5:08 PM ADT on August 03, 2015 (GMT -0300)
Halifax International | | Change Station
CLOSE
Current Station
Airport
Location: Halifax,
Elevation: 476 ft
Nearby Weather Stations

Elev 476 ft 44.88 °N, 63.51 °W | Updated 8 minutes ago

Scattered Clouds
Scattered Clouds
77 °F
Feels Like 77 °F
N
13
Wind Variable Wind from South
Gusts 20 mph

Today
High -- | Low -- °F
--% Chance of Precip.
Yesterday
High -- | Low -- °F
Precip. -- in
6:01 AM 8:38 PM
Waning Gibbous, 84% visible
Pressure 29.94 in
Visibility 15.0 miles
Clouds Scattered Clouds 30000 ft
Dew Point 54 °F
Humidity 44%
Rainfall 0.00 in
Snow Depth Not available.
UV 3 out of 12
Pollen Not available.
Air Quality Not available.
Flu Activity Not available.
METAR CYHZ 032000Z 18011G17KT 15SM SCT300 25/12 A2994 RMK CI3 SLP138 DENSITY ALT 1700FT

More Conditions Fewer Conditions

Pressure 29.94 in
Visibility 15.0 miles
Clouds Scattered Clouds 30000 ft
Dew Point 54 °F
Humidity 44%
Rainfall 0.00 in
Snow Depth Not available.
UV 3 out of 12
Pollen Not available.
Air Quality Not available.
Flu Activity Not available.
METAR CYHZ 032000Z 18011G17KT 15SM SCT300 25/12 A2994 RMK CI3 SLP138 DENSITY ALT 1700FT

More Conditions Fewer Conditions

10-Day Weather Forecast

×

Almanac

Astronomy

Aug. 03, 2015 Rise Set
Actual Time
Civil Twilight
Nautical Twilight
Astronomical Twilight
Moon
Length of Visible Light
Length of Day
Tomorrow will be .
, % of the Moon is Illuminated

Today's Extremes

Country Highs Country Lows

Community

WunderPhotos

Upload Photos

1,843,720 photos uploaded!

WunderBlogs® & News

Nearby

Air Quality

  Air Quality AQ Index Pollutant
Not available.

Snow Depth

Station Depth Elevation

Earthquake Activity

City Distance Mag. Time & Date
Minimum magnitude displayed is 2.5.

Coastal Water Temperatures

Place Temperature

Stations

Nearby Weather Stations

Station Location Temp. Windchill Dew Point Humidity Wind Precip. Elev Updated Type